Time;durP1;ratioP1;P1;durP2;ratioP2;P2;SDS_P1;SDS_P2;PMS_P1;PMS_P2;Temp;Humidity;BMP_temperature;BMP_pressure;BME280_temperature;BME280_humidity;BME280_pressure;Samples;Min_cycle;Max_cycle;Signal;HPM_P1;HPM_P2
2022/07/11 00:00:56;;;;;;;18.67;1.95;;;;;;;;;;4917266;29;20031;-56
2022/07/11 00:03:23;;;;;;;14.07;2.13;;;;;;;;;;4918904;29;20044;-60
2022/07/11 00:05:50;;;;;;;19.48;2.25;;;;;;;;;;4924778;29;20059;-57
2022/07/11 00:08:17;;;;;;;12.98;2.05;;;;;;;;;;4920859;29;20027;-60
2022/07/11 00:10:46;;;;;;;15.05;2.17;;;;;;;;;;4918850;29;20020;-59
2022/07/11 00:13:13;;;;;;;14.73;2.33;;;;;;;;;;4920943;29;20063;-58
2022/07/11 00:15:40;;;;;;;13.27;2.50;;;;;;;;;;4912747;29;20490;-55
2022/07/11 00:18:07;;;;;;;14.52;2.88;;;;;;;;;;4929276;29;20439;-60
2022/07/11 00:20:34;;;;;;;16.67;2.40;;;;;;;;;;4921015;29;20506;-58
2022/07/11 00:23:01;;;;;;;13.15;2.58;;;;;;;;;;4923096;29;20050;-55
2022/07/11 00:25:28;;;;;;;19.77;2.53;;;;;;;;;;4920067;29;20437;-62
2022/07/11 00:27:55;;;;;;;16.48;2.72;;;;;;;;;;4923767;29;20431;-53
2022/07/11 00:30:22;;;;;;;20.15;2.78;;;;;;;;;;4917403;29;20388;-57
2022/07/11 00:32:49;;;;;;;15.73;2.75;;;;;;;;;;4927905;29;20087;-51
2022/07/11 00:35:16;;;;;;;12.75;2.65;;;;;;;;;;4921408;29;20036;-58
2022/07/11 00:37:43;;;;;;;13.20;2.00;;;;;;;;;;4922080;29;20043;-55
2022/07/11 00:40:11;;;;;;;11.77;2.17;;;;;;;;;;4918031;29;20039;-59
2022/07/11 00:42:38;;;;;;;16.67;2.58;;;;;;;;;;4919493;29;20095;-58
2022/07/11 00:45:05;;;;;;;15.13;2.55;;;;;;;;;;4919427;29;20020;-55
2022/07/11 00:47:32;;;;;;;10.05;2.00;;;;;;;;;;4924846;29;20030;-56
2022/07/11 00:49:59;;;;;;;13.38;2.03;;;;;;;;;;4922642;29;20032;-58
2022/07/11 00:52:26;;;;;;;10.85;1.95;;;;;;;;;;4920381;29;20126;-60
2022/07/11 00:54:54;;;;;;;13.77;2.20;;;;;;;;;;4919792;29;20502;-59
2022/07/11 00:57:22;;;;;;;12.55;1.92;;;;;;;;;;4918139;29;20394;-61
2022/07/11 00:59:49;;;;;;;16.77;2.55;;;;;;;;;;4916385;29;20082;-57
2022/07/11 01:02:16;;;;;;;17.08;2.50;;;;;;;;;;4915043;29;20043;-60
2022/07/11 01:04:43;;;;;;;17.83;2.42;;;;;;;;;;4916358;29;20059;-56
2022/07/11 01:07:11;;;;;;;8.85;1.95;;;;;;;;;;4916393;29;20035;-59
2022/07/11 01:09:38;;;;;;;16.63;2.22;;;;;;;;;;4915238;29;20086;-59
2022/07/11 01:12:06;;;;;;;13.27;2.00;;;;;;;;;;4915423;29;20031;-57
2022/07/11 01:14:33;;;;;;;16.52;2.72;;;;;;;;;;4910602;29;20028;-58
2022/07/11 01:17:00;;;;;;;11.40;1.90;;;;;;;;;;4919467;29;20028;-59
2022/07/11 01:19:27;;;;;;;14.27;2.50;;;;;;;;;;4916587;29;20123;-57
2022/07/11 01:21:56;;;;;;;19.98;2.53;;;;;;;;;;4917048;29;20032;-58
2022/07/11 01:24:23;;;;;;;14.77;2.97;;;;;;;;;;4916506;29;20036;-55
2022/07/11 01:26:52;;;;;;;17.55;3.17;;;;;;;;;;4916929;29;20115;-57
2022/07/11 01:29:19;;;;;;;19.25;2.92;;;;;;;;;;4916380;29;20491;-56
2022/07/11 01:31:46;;;;;;;15.82;3.17;;;;;;;;;;4921161;29;20024;-56
2022/07/11 01:34:13;;;;;;;17.77;3.55;;;;;;;;;;4915039;29;20036;-57
2022/07/11 01:36:42;;;;;;;18.23;4.18;;;;;;;;;;4927213;29;20083;-57
2022/07/11 01:39:09;;;;;;;29.17;5.70;;;;;;;;;;4920325;29;20466;-57
2022/07/11 01:41:36;;;;;;;28.13;6.65;;;;;;;;;;4925781;29;20046;-56
2022/07/11 01:44:03;;;;;;;33.70;7.30;;;;;;;;;;4928330;29;20047;-56
2022/07/11 01:46:30;;;;;;;34.95;7.47;;;;;;;;;;4921041;29;20020;-56
2022/07/11 01:48:57;;;;;;;33.58;8.60;;;;;;;;;;4918532;29;20071;-57
2022/07/11 01:51:24;;;;;;;39.63;9.10;;;;;;;;;;4924908;29;21128;-57
2022/07/11 01:53:54;;;;;;;44.22;10.68;;;;;;;;;;4926235;29;20032;-57
2022/07/11 01:56:21;;;;;;;40.55;10.27;;;;;;;;;;4922025;29;20032;-58
2022/07/11 01:58:48;;;;;;;47.30;11.23;;;;;;;;;;4921966;29;20115;-56
2022/07/11 02:01:15;;;;;;;45.92;10.57;;;;;;;;;;4925842;29;20036;-58
2022/07/11 02:03:42;;;;;;;49.53;11.85;;;;;;;;;;4914476;29;20087;-57
2022/07/11 02:06:12;;;;;;;54.30;12.65;;;;;;;;;;4918534;29;20064;-54
2022/07/11 02:08:39;;;;;;;44.05;11.23;;;;;;;;;;4916506;29;20039;-55
2022/07/11 02:11:06;;;;;;;49.92;12.05;;;;;;;;;;4918242;29;20055;-57
2022/07/11 02:13:33;;;;;;;44.45;10.93;;;;;;;;;;4918806;29;20084;-58
2022/07/11 02:16:01;;;;;;;41.35;10.45;;;;;;;;;;4922543;29;20039;-57
2022/07/11 02:18:28;;;;;;;42.70;11.73;;;;;;;;;;4921469;29;20038;-57
2022/07/11 02:20:55;;;;;;;38.20;11.02;;;;;;;;;;4919146;29;20052;-61
2022/07/11 02:23:22;;;;;;;46.45;11.27;;;;;;;;;;4922383;29;20051;-62
2022/07/11 02:25:49;;;;;;;38.65;11.05;;;;;;;;;;4918666;29;20421;-60
2022/07/11 02:28:16;;;;;;;37.78;9.63;;;;;;;;;;4924946;29;20027;-60
2022/07/11 02:30:45;;;;;;;32.08;9.40;;;;;;;;;;4915364;29;20028;-60
2022/07/11 02:33:16;;;;;;;32.15;9.45;;;;;;;;;;4915639;29;20384;-62
2022/07/11 02:35:43;;;;;;;34.38;9.57;;;;;;;;;;4914178;29;20032;-60
2022/07/11 02:38:10;;;;;;;37.92;8.75;;;;;;;;;;4914670;29;20087;-60
2022/07/11 02:40:37;;;;;;;35.47;9.07;;;;;;;;;;4913855;29;20032;-60
2022/07/11 02:43:05;;;;;;;38.03;8.77;;;;;;;;;;4915137;29;20071;-60
2022/07/11 02:45:32;;;;;;;30.95;8.43;;;;;;;;;;4915566;29;20483;-60
2022/07/11 02:47:59;;;;;;;33.50;9.18;;;;;;;;;;4915903;29;20061;-60
2022/07/11 02:50:26;;;;;;;30.00;8.98;;;;;;;;;;4915201;29;20439;-60
2022/07/11 02:52:53;;;;;;;32.53;7.88;;;;;;;;;;4923937;29;20032;-63
2022/07/11 02:55:20;;;;;;;36.50;8.70;;;;;;;;;;4934685;29;20024;-62
2022/07/11 02:57:47;;;;;;;24.77;7.70;;;;;;;;;;4916496;29;20394;-62
2022/07/11 03:00:15;;;;;;;26.10;7.47;;;;;;;;;;4920897;29;20032;-62
2022/07/11 03:02:42;;;;;;;24.80;7.25;;;;;;;;;;4914888;29;20060;-62
2022/07/11 03:05:09;;;;;;;23.70;6.35;;;;;;;;;;4915687;29;20056;-62
2022/07/11 03:07:36;;;;;;;23.77;6.53;;;;;;;;;;4915983;29;20040;-62
2022/07/11 03:10:04;;;;;;;28.23;7.32;;;;;;;;;;4915052;29;20367;-62
2022/07/11 03:12:31;;;;;;;23.52;6.07;;;;;;;;;;4915415;29;20056;-62
2022/07/11 03:14:58;;;;;;;22.48;7.00;;;;;;;;;;4915661;29;20031;-62
2022/07/11 03:17:25;;;;;;;24.80;6.20;;;;;;;;;;4915543;29;20024;-62
2022/07/11 03:19:52;;;;;;;24.13;6.50;;;;;;;;;;4914253;29;20032;-63
2022/07/11 03:22:19;;;;;;;21.20;6.10;;;;;;;;;;4914765;29;20107;-62
2022/07/11 03:24:45;;;;;;;18.58;5.10;;;;;;;;;;4915732;29;20490;-62
2022/07/11 03:27:13;;;;;;;19.65;6.03;;;;;;;;;;4914915;29;20036;-62
2022/07/11 03:29:40;;;;;;;16.70;5.40;;;;;;;;;;4915796;29;20043;-62
2022/07/11 03:32:07;;;;;;;21.48;5.57;;;;;;;;;;4914990;29;20092;-63
2022/07/11 03:34:34;;;;;;;18.50;5.35;;;;;;;;;;4915030;29;20095;-62
2022/07/11 03:37:01;;;;;;;18.52;5.25;;;;;;;;;;4914861;29;20091;-62
2022/07/11 03:39:28;;;;;;;17.88;5.22;;;;;;;;;;4915247;29;20032;-62
2022/07/11 03:41:55;;;;;;;16.40;5.15;;;;;;;;;;4915176;29;20035;-62
2022/07/11 03:44:22;;;;;;;15.98;4.75;;;;;;;;;;4915666;29;20064;-62
2022/07/11 03:46:49;;;;;;;19.27;5.30;;;;;;;;;;4914825;29;20047;-63
2022/07/11 03:49:16;;;;;;;14.77;4.72;;;;;;;;;;4915021;29;20079;-61
2022/07/11 03:51:44;;;;;;;15.77;5.20;;;;;;;;;;4915262;29;20064;-62
2022/07/11 03:54:11;;;;;;;20.63;4.72;;;;;;;;;;4914722;29;20036;-61
2022/07/11 03:56:37;;;;;;;14.93;5.05;;;;;;;;;;4915330;29;20055;-62
2022/07/11 03:59:04;;;;;;;14.55;4.35;;;;;;;;;;4917850;29;20036;-62
2022/07/11 04:01:31;;;;;;;15.82;5.07;;;;;;;;;;4918415;29;20028;-61
2022/07/11 04:03:58;;;;;;;15.68;4.75;;;;;;;;;;4917152;29;20418;-61
2022/07/11 04:06:25;;;;;;;14.95;4.90;;;;;;;;;;4917912;29;20037;-61
2022/07/11 04:08:52;;;;;;;12.80;4.10;;;;;;;;;;4918058;29;20047;-61
2022/07/11 04:11:19;;;;;;;13.48;4.07;;;;;;;;;;4918578;29;20100;-63
2022/07/11 04:13:46;;;;;;;15.63;4.43;;;;;;;;;;4917972;29;20141;-61
2022/07/11 04:16:13;;;;;;;14.30;4.18;;;;;;;;;;4918472;29;20084;-61
2022/07/11 04:18:40;;;;;;;14.65;4.13;;;;;;;;;;4918140;29;20096;-62
2022/07/11 04:21:07;;;;;;;11.50;3.83;;;;;;;;;;4918671;29;20084;-62
2022/07/11 04:23:34;;;;;;;12.40;3.72;;;;;;;;;;4917730;29;20050;-61
2022/07/11 04:26:01;;;;;;;10.88;3.53;;;;;;;;;;4917997;29;20024;-62
2022/07/11 04:28:28;;;;;;;12.52;3.85;;;;;;;;;;4917744;29;20039;-61
2022/07/11 04:30:55;;;;;;;11.60;3.53;;;;;;;;;;4918249;29;20036;-62
2022/07/11 04:33:21;;;;;;;13.27;3.78;;;;;;;;;;4917553;29;20047;-61
2022/07/11 04:35:48;;;;;;;10.35;4.05;;;;;;;;;;4917403;29;20039;-61
2022/07/11 04:38:16;;;;;;;11.88;3.38;;;;;;;;;;4918139;29;20028;-62
2022/07/11 04:40:43;;;;;;;13.10;3.63;;;;;;;;;;4918414;29;20040;-62
2022/07/11 04:43:10;;;;;;;10.77;3.67;;;;;;;;;;4918059;29;20055;-61
2022/07/11 04:45:37;;;;;;;9.57;3.17;;;;;;;;;;4917379;29;20047;-61
2022/07/11 04:48:04;;;;;;;9.25;3.40;;;;;;;;;;4918238;29;20055;-61
2022/07/11 04:50:31;;;;;;;8.75;3.10;;;;;;;;;;4917427;29;20036;-61
2022/07/11 04:52:58;;;;;;;8.55;3.05;;;;;;;;;;4918047;29;20556;-62
2022/07/11 04:55:25;;;;;;;10.77;3.15;;;;;;;;;;4917904;29;20032;-61
2022/07/11 04:57:52;;;;;;;6.82;2.67;;;;;;;;;;4917285;29;20028;-62
2022/07/11 05:00:20;;;;;;;8.38;3.03;;;;;;;;;;4918099;29;20528;-62
2022/07/11 05:02:47;;;;;;;8.98;2.70;;;;;;;;;;4917173;29;20543;-61
2022/07/11 05:05:14;;;;;;;11.25;3.33;;;;;;;;;;4917288;29;20072;-61
2022/07/11 05:07:41;;;;;;;9.27;3.13;;;;;;;;;;4917493;29;20028;-60
2022/07/11 05:10:08;;;;;;;8.80;3.17;;;;;;;;;;4917188;29;20471;-61
2022/07/11 05:12:35;;;;;;;8.55;2.85;;;;;;;;;;4916726;29;20028;-62
2022/07/11 05:15:02;;;;;;;10.18;3.00;;;;;;;;;;4917001;29;20111;-62
2022/07/11 05:17:29;;;;;;;10.07;2.45;;;;;;;;;;4917640;29;20035;-61
2022/07/11 05:19:56;;;;;;;7.72;2.58;;;;;;;;;;4917657;29;20071;-62
2022/07/11 05:22:23;;;;;;;6.45;2.42;;;;;;;;;;4916647;29;20068;-60
2022/07/11 05:24:50;;;;;;;7.38;2.22;;;;;;;;;;4916603;29;20065;-62
2022/07/11 05:27:17;;;;;;;8.77;2.83;;;;;;;;;;4917052;29;20027;-62
2022/07/11 05:29:44;;;;;;;9.27;2.80;;;;;;;;;;4916954;29;20402;-60
2022/07/11 05:32:11;;;;;;;8.73;2.53;;;;;;;;;;4916721;29;20434;-61
2022/07/11 05:34:39;;;;;;;8.48;2.78;;;;;;;;;;4916953;29;20042;-62
2022/07/11 05:37:06;;;;;;;6.05;2.10;;;;;;;;;;4917159;29;20110;-61
2022/07/11 05:39:33;;;;;;;6.65;2.40;;;;;;;;;;4916429;29;20032;-60
2022/07/11 05:42:00;;;;;;;9.65;2.50;;;;;;;;;;4916963;29;20034;-61
2022/07/11 05:44:27;;;;;;;6.10;2.10;;;;;;;;;;4916975;29;20146;-62
2022/07/11 05:46:54;;;;;;;6.60;2.08;;;;;;;;;;4916549;29;20110;-61
2022/07/11 05:49:21;;;;;;;8.43;2.10;;;;;;;;;;4916078;29;20502;-62
2022/07/11 05:51:48;;;;;;;7.57;2.45;;;;;;;;;;4916922;29;20028;-62
2022/07/11 05:54:16;;;;;;;5.78;2.00;;;;;;;;;;4916809;29;20040;-61
2022/07/11 05:56:43;;;;;;;6.65;2.30;;;;;;;;;;4916273;29;20032;-63
2022/07/11 05:59:10;;;;;;;6.63;2.70;;;;;;;;;;4916868;29;20474;-61
2022/07/11 06:01:37;;;;;;;7.22;2.35;;;;;;;;;;4916017;29;20082;-62
2022/07/11 06:04:04;;;;;;;7.70;2.17;;;;;;;;;;4916616;29;20056;-62
2022/07/11 06:06:31;;;;;;;6.28;2.05;;;;;;;;;;4916533;29;20104;-61
2022/07/11 06:08:58;;;;;;;5.13;1.80;;;;;;;;;;4916140;29;20035;-62
2022/07/11 06:11:25;;;;;;;4.93;1.90;;;;;;;;;;4916726;29;20036;-62
2022/07/11 06:13:52;;;;;;;5.22;2.03;;;;;;;;;;4914031;29;20064;-62
2022/07/11 06:16:19;;;;;;;6.88;2.00;;;;;;;;;;4916022;29;20111;-62
2022/07/11 06:18:46;;;;;;;5.43;1.88;;;;;;;;;;4916541;29;20032;-61
2022/07/11 06:21:13;;;;;;;6.63;2.22;;;;;;;;;;4915326;29;20079;-62
2022/07/11 06:23:42;;;;;;;5.65;2.05;;;;;;;;;;4916510;29;20028;-62
2022/07/11 06:26:11;;;;;;;8.00;1.80;;;;;;;;;;4915589;29;20040;-63
2022/07/11 06:28:39;;;;;;;4.90;1.90;;;;;;;;;;4916205;29;20070;-62
2022/07/11 06:31:06;;;;;;;7.40;2.10;;;;;;;;;;4916259;29;20075;-63
2022/07/11 06:33:34;;;;;;;5.07;1.90;;;;;;;;;;4915464;29;20534;-60
2022/07/11 06:36:02;;;;;;;5.90;1.73;;;;;;;;;;4915420;29;20364;-62
2022/07/11 06:38:29;;;;;;;5.10;2.05;;;;;;;;;;4916000;29;20035;-62
2022/07/11 06:40:56;;;;;;;7.03;1.98;;;;;;;;;;4916331;29;20032;-62
2022/07/11 06:43:24;;;;;;;4.22;2.00;;;;;;;;;;4915150;29;20025;-62
2022/07/11 06:45:51;;;;;;;5.20;1.85;;;;;;;;;;4915429;29;20597;-62
2022/07/11 06:48:20;;;;;;;4.65;1.83;;;;;;;;;;4916073;29;20024;-62
2022/07/11 06:50:47;;;;;;;6.05;1.83;;;;;;;;;;4916180;29;20035;-62
2022/07/11 06:53:14;;;;;;;5.20;1.90;;;;;;;;;;4915243;29;20039;-62
2022/07/11 06:55:41;;;;;;;4.13;1.60;;;;;;;;;;4916324;29;20024;-61
2022/07/11 06:58:08;;;;;;;3.20;1.50;;;;;;;;;;4915327;29;20032;-62
2022/07/11 07:00:35;;;;;;;6.70;1.60;;;;;;;;;;4915746;29;20028;-61
2022/07/11 07:03:02;;;;;;;4.25;1.50;;;;;;;;;;4915910;29;20085;-61
2022/07/11 07:05:29;;;;;;;4.28;1.50;;;;;;;;;;4915803;29;20063;-62
2022/07/11 07:07:56;;;;;;;2.78;1.27;;;;;;;;;;4915524;29;20504;-62
2022/07/11 07:10:25;;;;;;;3.78;1.42;;;;;;;;;;4915665;29;20107;-63
2022/07/11 07:12:52;;;;;;;3.78;1.40;;;;;;;;;;4915308;29;20075;-62
2022/07/11 07:15:19;;;;;;;3.80;1.50;;;;;;;;;;4915807;29;20075;-61
2022/07/11 07:17:45;;;;;;;3.47;1.25;;;;;;;;;;4915956;29;20032;-62
2022/07/11 07:20:13;;;;;;;3.75;1.30;;;;;;;;;;4915231;29;20032;-62
2022/07/11 07:22:40;;;;;;;3.20;1.30;;;;;;;;;;4915157;29;20028;-62
2022/07/11 07:25:07;;;;;;;4.35;1.40;;;;;;;;;;4915453;29;20406;-62
2022/07/11 07:27:34;;;;;;;3.30;1.55;;;;;;;;;;4915203;29;20036;-62
2022/07/11 07:30:02;;;;;;;4.10;1.15;;;;;;;;;;4915341;29;20083;-61
2022/07/11 07:32:29;;;;;;;4.35;1.30;;;;;;;;;;4917037;29;20040;-62
2022/07/11 07:34:56;;;;;;;3.35;1.27;;;;;;;;;;4918628;29;20083;-62
2022/07/11 07:37:23;;;;;;;2.08;1.10;;;;;;;;;;4919380;29;20423;-62
2022/07/11 07:39:50;;;;;;;4.38;1.75;;;;;;;;;;4918323;29;20024;-62
2022/07/11 07:42:17;;;;;;;2.83;1.25;;;;;;;;;;4919169;29;20056;-62
2022/07/11 07:44:44;;;;;;;3.75;1.38;;;;;;;;;;4918881;29;20111;-62
2022/07/11 07:47:11;;;;;;;4.75;1.67;;;;;;;;;;4918519;29;20087;-62
2022/07/11 07:49:38;;;;;;;3.17;1.25;;;;;;;;;;4919248;29;20028;-63
2022/07/11 07:52:05;;;;;;;2.63;1.40;;;;;;;;;;4918322;29;20037;-62
2022/07/11 07:54:32;;;;;;;2.67;1.33;;;;;;;;;;4919066;29;20039;-61
2022/07/11 07:56:59;;;;;;;3.78;1.30;;;;;;;;;;4918506;29;20088;-63
2022/07/11 07:59:26;;;;;;;5.00;1.13;;;;;;;;;;4918448;29;20087;-62
2022/07/11 08:01:53;;;;;;;3.50;1.20;;;;;;;;;;4919023;29;20087;-62
2022/07/11 08:04:20;;;;;;;3.67;1.10;;;;;;;;;;4918220;29;20048;-62
2022/07/11 08:06:52;;;;;;;2.38;1.17;;;;;;;;;;4918689;29;20427;-62
2022/07/11 08:09:18;;;;;;;3.70;1.05;;;;;;;;;;4918253;29;20025;-62
2022/07/11 08:11:45;;;;;;;4.15;1.30;;;;;;;;;;4918492;29;20098;-61
2022/07/11 08:14:12;;;;;;;2.67;1.00;;;;;;;;;;4918650;29;20056;-62
2022/07/11 08:16:41;;;;;;;3.40;1.23;;;;;;;;;;4918776;29;20452;-62
2022/07/11 08:19:07;;;;;;;3.42;1.33;;;;;;;;;;4917902;29;20051;-61
2022/07/11 08:21:35;;;;;;;4.40;1.00;;;;;;;;;;4918126;29;20031;-62
2022/07/11 08:24:02;;;;;;;2.35;1.02;;;;;;;;;;4918068;29;20036;-62
2022/07/11 08:26:29;;;;;;;2.47;1.00;;;;;;;;;;4918050;29;20495;-62
2022/07/11 08:28:56;;;;;;;1.83;0.93;;;;;;;;;;4918108;29;20036;-62
2022/07/11 08:31:24;;;;;;;3.45;1.00;;;;;;;;;;4918313;29;20473;-62
2022/07/11 08:33:52;;;;;;;1.77;0.82;;;;;;;;;;4917587;29;20035;-62
2022/07/11 08:36:19;;;;;;;2.88;0.90;;;;;;;;;;4918200;29;20071;-62
2022/07/11 08:38:46;;;;;;;2.17;0.80;;;;;;;;;;4917979;29;20028;-62
2022/07/11 08:41:14;;;;;;;3.42;1.10;;;;;;;;;;4917873;29;20102;-62
2022/07/11 08:43:43;;;;;;;2.97;0.75;;;;;;;;;;4917747;29;20044;-62
2022/07/11 08:46:11;;;;;;;2.10;0.75;;;;;;;;;;4917452;29;20028;-59
2022/07/11 08:48:42;;;;;;;3.65;0.88;;;;;;;;;;4918353;29;20465;-60
2022/07/11 08:51:09;;;;;;;1.95;0.70;;;;;;;;;;4917647;29;20024;-60
2022/07/11 08:53:40;;;;;;;4.15;1.00;;;;;;;;;;4917393;29;20509;-60
2022/07/11 08:56:10;;;;;;;2.47;0.98;;;;;;;;;;4917231;29;20072;-61
2022/07/11 08:58:38;;;;;;;1.42;0.88;;;;;;;;;;4918104;29;20046;-60
2022/07/11 09:01:06;;;;;;;1.80;0.88;;;;;;;;;;4917243;29;20039;-60
2022/07/11 09:03:35;;;;;;;1.95;1.00;;;;;;;;;;4917558;29;20055;-60
2022/07/11 09:06:02;;;;;;;1.88;0.98;;;;;;;;;;4916773;29;20035;-60
2022/07/11 09:08:31;;;;;;;2.00;0.80;;;;;;;;;;4917918;29;20059;-60
2022/07/11 09:10:58;;;;;;;2.03;0.90;;;;;;;;;;4917523;29;20486;-59
2022/07/11 09:13:30;;;;;;;1.20;0.70;;;;;;;;;;4916852;29;20043;-60
2022/07/11 09:16:07;;;;;;;2.85;1.00;;;;;;;;;;4917786;29;20455;-60
2022/07/11 09:18:38;;;;;;;2.58;0.70;;;;;;;;;;4916797;29;20107;-60
2022/07/11 09:26:39;;;;;;;2.05;0.90;;;;;;;;;;4917139;29;20485;-60
2022/07/11 09:29:14;;;;;;;1.58;0.60;;;;;;;;;;4916996;29;20032;-59
2022/07/11 09:31:45;;;;;;;2.50;0.70;;;;;;;;;;4916350;29;20024;-60
2022/07/11 09:34:13;;;;;;;1.73;0.80;;;;;;;;;;4916881;29;20032;-60
2022/07/11 09:36:40;;;;;;;2.10;0.80;;;;;;;;;;4915908;29;20028;-60
2022/07/11 09:39:08;;;;;;;2.13;0.90;;;;;;;;;;4916095;29;20024;-60
2022/07/11 09:41:36;;;;;;;1.70;0.65;;;;;;;;;;4916444;29;20032;-60
2022/07/11 09:44:12;;;;;;;3.08;0.82;;;;;;;;;;4916979;29;20059;-60
2022/07/11 09:46:40;;;;;;;3.42;0.60;;;;;;;;;;4916711;29;20036;-60
2022/07/11 09:49:07;;;;;;;2.72;0.70;;;;;;;;;;4916350;29;20048;-60
2022/07/11 09:51:35;;;;;;;3.13;0.70;;;;;;;;;;4915225;29;20028;-60
2022/07/11 09:54:04;;;;;;;2.78;0.77;;;;;;;;;;4915941;29;20156;-60
2022/07/11 09:56:51;;;;;;;2.13;0.55;;;;;;;;;;4916592;29;20406;-60
2022/07/11 09:59:18;;;;;;;3.47;0.80;;;;;;;;;;4915905;29;20090;-60
2022/07/11 10:01:46;;;;;;;6.00;0.60;;;;;;;;;;4916332;29;20086;-60
2022/07/11 10:04:12;;;;;;;2.63;0.85;;;;;;;;;;4916143;29;20066;-60
2022/07/11 10:06:40;;;;;;;3.15;0.80;;;;;;;;;;4916202;29;20028;-60
2022/07/11 10:09:07;;;;;;;3.78;0.90;;;;;;;;;;4916793;29;20021;-61
2022/07/11 10:11:35;;;;;;;2.00;0.80;;;;;;;;;;4915843;29;20032;-60
2022/07/11 10:14:04;;;;;;;2.15;0.68;;;;;;;;;;4916506;29;20095;-60
2022/07/11 10:16:33;;;;;;;4.00;0.77;;;;;;;;;;4916412;29;20051;-59
2022/07/11 10:19:10;;;;;;;2.42;0.60;;;;;;;;;;4915911;29;20024;-60
2022/07/11 10:21:43;;;;;;;4.05;0.90;;;;;;;;;;4915001;29;20588;-60
2022/07/11 10:24:10;;;;;;;5.78;0.80;;;;;;;;;;4916175;29;20036;-60
2022/07/11 10:26:40;;;;;;;2.80;0.82;;;;;;;;;;4916415;29;20024;-60
2022/07/11 10:29:11;;;;;;;1.10;0.50;;;;;;;;;;4915620;29;20398;-60
2022/07/11 10:31:39;;;;;;;2.72;0.80;;;;;;;;;;4916351;29;20427;-61
2022/07/11 10:34:19;;;;;;;1.63;0.60;;;;;;;;;;4915940;29;20036;-60
2022/07/11 10:36:46;;;;;;;4.15;0.60;;;;;;;;;;4916063;29;20018;-59
2022/07/11 10:39:29;;;;;;;3.15;0.50;;;;;;;;;;4916454;29;20020;-61
2022/07/11 10:41:57;;;;;;;3.17;0.80;;;;;;;;;;4915114;29;20047;-61
2022/07/11 10:44:24;;;;;;;2.60;0.98;;;;;;;;;;4915396;29;20632;-60
2022/07/11 10:46:54;;;;;;;5.43;1.05;;;;;;;;;;4915689;29;20489;-60
2022/07/11 10:49:34;;;;;;;3.90;0.60;;;;;;;;;;4915151;29;20028;-60
2022/07/11 10:52:06;;;;;;;2.47;0.70;;;;;;;;;;4916122;29;20024;-60
2022/07/11 10:54:36;;;;;;;4.20;0.80;;;;;;;;;;4915273;29;20435;-60
2022/07/11 10:57:15;;;;;;;3.55;0.98;;;;;;;;;;4915863;29;20036;-60
2022/07/11 11:00:01;;;;;;;4.72;0.63;;;;;;;;;;4915871;29;20107;-60
2022/07/11 11:02:29;;;;;;;4.50;0.85;;;;;;;;;;4915391;29;20031;-60
2022/07/11 11:05:02;;;;;;;4.70;0.60;;;;;;;;;;4915470;29;20526;-60
2022/07/11 11:07:32;;;;;;;2.05;0.50;;;;;;;;;;4917398;29;20084;-60
2022/07/11 11:10:00;;;;;;;2.33;0.50;;;;;;;;;;4920047;29;20028;-60
2022/07/11 11:12:45;;;;;;;4.15;0.63;;;;;;;;;;4919306;29;20479;-60
2022/07/11 11:15:30;;;;;;;2.90;0.70;;;;;;;;;;4919325;29;20059;-60
2022/07/11 11:17:57;;;;;;;2.60;0.70;;;;;;;;;;4919054;29;20028;-60
2022/07/11 11:20:34;;;;;;;1.73;0.63;;;;;;;;;;4919137;29;20059;-60
2022/07/11 11:23:20;;;;;;;1.73;0.43;;;;;;;;;;4918675;29;20032;-60
2022/07/11 11:25:50;;;;;;;5.03;0.68;;;;;;;;;;4919473;29;20083;-60
2022/07/11 11:28:23;;;;;;;2.90;0.70;;;;;;;;;;4919103;29;20039;-60
2022/07/11 11:30:54;;;;;;;2.28;0.50;;;;;;;;;;4917670;29;20048;-60
2022/07/11 11:33:21;;;;;;;2.78;0.77;;;;;;;;;;4919531;29;20080;-61
2022/07/11 11:36:05;;;;;;;0.85;0.50;;;;;;;;;;4919513;29;20185;-59
2022/07/11 11:38:36;;;;;;;1.58;0.60;;;;;;;;;;4918750;29;20075;-61
2022/07/11 11:41:05;;;;;;;2.47;0.50;;;;;;;;;;4918463;29;20506;-60
2022/07/11 11:43:32;;;;;;;3.00;0.85;;;;;;;;;;4919135;29;20406;-60
2022/07/11 11:45:59;;;;;;;1.10;0.52;;;;;;;;;;4918644;29;20025;-60
2022/07/11 11:48:37;;;;;;;1.70;0.60;;;;;;;;;;4918320;29;20039;-60
2022/07/11 11:51:07;;;;;;;3.83;0.95;;;;;;;;;;4919208;29;20063;-60
2022/07/11 11:53:39;;;;;;;2.65;0.40;;;;;;;;;;4918736;29;20032;-60
2022/07/11 11:56:19;;;;;;;1.17;0.43;;;;;;;;;;4918681;29;20554;-61
2022/07/11 11:58:47;;;;;;;2.63;0.70;;;;;;;;;;4919046;29;20066;-60
2022/07/11 12:01:14;;;;;;;1.50;0.52;;;;;;;;;;4918592;29;20036;-60
2022/07/11 12:03:48;;;;;;;1.38;0.50;;;;;;;;;;4918381;29;20056;-60
2022/07/11 12:06:15;;;;;;;1.15;0.50;;;;;;;;;;4918551;29;20542;-60
2022/07/11 12:08:42;;;;;;;1.05;0.50;;;;;;;;;;4918410;29;20036;-60
2022/07/11 12:11:15;;;;;;;1.20;0.47;;;;;;;;;;4918504;29;20056;-59
2022/07/11 12:13:43;;;;;;;2.25;0.50;;;;;;;;;;4918476;29;20036;-59
2022/07/11 12:19:02;;;;;;;2.40;0.47;;;;;;;;;;4918440;29;20414;-61
2022/07/11 12:21:32;;;;;;;1.60;0.60;;;;;;;;;;4916250;29;20047;-62
2022/07/11 12:24:03;;;;;;;3.88;0.50;;;;;;;;;;4917251;29;20044;-60
2022/07/11 12:26:34;;;;;;;2.20;0.70;;;;;;;;;;4917700;29;20550;-62
2022/07/11 12:29:19;;;;;;;3.40;0.68;;;;;;;;;;4918417;29;21079;-62
2022/07/11 12:31:48;;;;;;;4.95;1.02;;;;;;;;;;4917680;29;20063;-63
2022/07/11 12:34:19;;;;;;;5.72;1.25;;;;;;;;;;4917663;29;20506;-62
2022/07/11 12:36:46;;;;;;;8.48;1.13;;;;;;;;;;4918170;29;20080;-62
2022/07/11 12:39:27;;;;;;;7.85;1.23;;;;;;;;;;4924596;29;20027;-62
2022/07/11 12:41:54;;;;;;;8.93;1.20;;;;;;;;;;4916997;29;20031;-60
2022/07/11 12:47:10;;;;;;;13.38;1.05;;;;;;;;;;4926298;29;20062;-60
2022/07/11 12:49:39;;;;;;;9.90;1.05;;;;;;;;;;4926804;29;20438;-63
2022/07/11 12:52:07;;;;;;;6.43;1.40;;;;;;;;;;4922566;29;20068;-62
2022/07/11 12:54:34;;;;;;;42.47;3.17;;;;;;;;;;4916139;29;20506;-55
2022/07/11 12:57:02;;;;;;;41.35;4.45;;;;;;;;;;4924103;29;20024;-57
2022/07/11 12:59:31;;;;;;;24.23;2.70;;;;;;;;;;4926185;29;20019;-60
2022/07/11 13:02:03;;;;;;;20.30;2.88;;;;;;;;;;4924492;29;20091;-57
2022/07/11 13:04:30;;;;;;;;;;;;;;;;;;4915436;29;20044;-56
2022/07/11 13:09:42;;;;;;;18.20;2.60;;;;;;;;;;4917205;29;20042;-57
2022/07/11 13:12:09;;;;;;;18.80;1.85;;;;;;;;;;4913502;29;20051;-61
2022/07/11 13:17:21;;;;;;;26.08;3.15;;;;;;;;;;4923696;29;20043;-61
2022/07/11 13:19:48;;;;;;;19.00;2.67;;;;;;;;;;4900759;29;20391;-59
2022/07/11 13:22:15;;;;;;;13.90;1.65;;;;;;;;;;4917521;29;20043;-62
2022/07/11 13:24:42;;;;;;;13.20;1.80;;;;;;;;;;4924144;29;20043;-61
2022/07/11 13:27:09;;;;;;;17.63;2.28;;;;;;;;;;4932386;29;20039;-59
2022/07/11 13:29:36;;;;;;;16.75;1.73;;;;;;;;;;4928135;29;20036;-60
2022/07/11 13:32:03;;;;;;;32.15;4.03;;;;;;;;;;4922010;29;20039;-60
2022/07/11 13:34:29;;;;;;;14.38;2.17;;;;;;;;;;4915809;29;20039;-60
2022/07/11 13:36:56;;;;;;;20.50;2.63;;;;;;;;;;4921124;29;20028;-58
2022/07/11 13:39:23;;;;;;;13.50;1.85;;;;;;;;;;4924342;29;20111;-56
2022/07/11 13:41:50;;;;;;;14.93;2.30;;;;;;;;;;4922576;29;20082;-58
2022/07/11 13:44:17;;;;;;;22.45;2.55;;;;;;;;;;4917547;29;20103;-58
2022/07/11 13:46:44;;;;;;;20.27;2.30;;;;;;;;;;4929825;29;20422;-58
2022/07/11 13:49:13;;;;;;;18.42;2.30;;;;;;;;;;4932040;29;20044;-58
2022/07/11 13:51:40;;;;;;;16.92;1.77;;;;;;;;;;4933812;29;20032;-59
2022/07/11 13:54:08;;;;;;;14.98;1.63;;;;;;;;;;4926843;29;20024;-58
2022/07/11 13:56:35;;;;;;;13.43;1.83;;;;;;;;;;4922863;29;20039;-56
2022/07/11 13:59:02;;;;;;;20.10;2.25;;;;;;;;;;4928463;29;20047;-59
2022/07/11 14:01:29;;;;;;;10.45;1.63;;;;;;;;;;4925550;29;20034;-56
2022/07/11 14:03:57;;;;;;;15.68;1.88;;;;;;;;;;4933283;29;20071;-58
2022/07/11 14:06:24;;;;;;;9.85;1.60;;;;;;;;;;4933954;29;20406;-58
2022/07/11 14:08:51;;;;;;;18.17;1.58;;;;;;;;;;4934921;29;20036;-57
2022/07/11 14:11:18;;;;;;;12.25;1.70;;;;;;;;;;4925045;29;20028;-57
2022/07/11 14:13:45;;;;;;;10.25;1.35;;;;;;;;;;4915637;29;20562;-59
2022/07/11 14:16:12;;;;;;;12.00;1.80;;;;;;;;;;4915332;29;20060;-55
2022/07/11 14:18:39;;;;;;;13.02;1.63;;;;;;;;;;4924526;29;20036;-57
2022/07/11 14:21:06;;;;;;;11.05;1.50;;;;;;;;;;4922093;29;20509;-56
2022/07/11 14:23:33;;;;;;;9.32;1.17;;;;;;;;;;4930749;29;20036;-58
2022/07/11 14:26:00;;;;;;;8.50;1.30;;;;;;;;;;4917994;29;20027;-58
2022/07/11 14:28:27;;;;;;;9.65;1.05;;;;;;;;;;4926375;29;20036;-57
2022/07/11 14:30:54;;;;;;;16.10;1.75;;;;;;;;;;4919924;29;20040;-59
2022/07/11 14:33:22;;;;;;;9.65;1.40;;;;;;;;;;4925371;29;20027;-56
2022/07/11 14:35:49;;;;;;;15.93;1.67;;;;;;;;;;4924691;29;20038;-57
2022/07/11 14:38:16;;;;;;;9.15;1.40;;;;;;;;;;4924223;29;20047;-58
2022/07/11 14:40:44;;;;;;;9.80;1.27;;;;;;;;;;4922599;29;20039;-57
2022/07/11 14:43:11;;;;;;;15.70;1.70;;;;;;;;;;4919000;29;20050;-58
2022/07/11 14:45:38;;;;;;;14.20;1.50;;;;;;;;;;4904339;29;20118;-59
2022/07/11 14:48:05;;;;;;;10.95;1.70;;;;;;;;;;4918036;29;20111;-57
2022/07/11 14:50:34;;;;;;;10.50;1.45;;;;;;;;;;4915775;29;20028;-55
2022/07/11 14:53:01;;;;;;;15.32;1.45;;;;;;;;;;4926240;29;20055;-58
2022/07/11 14:55:28;;;;;;;16.73;1.80;;;;;;;;;;4924584;29;20107;-55
2022/07/11 14:57:55;;;;;;;12.65;1.67;;;;;;;;;;4915887;29;20040;-57